• Join FlightAware (Why Join?)
  • Login
  • US Flag 
10:39PM EDT


 

Airport Tracker/Info


-or-


 

Live Flight TrackerFlight Track Log ✈ AAL963 ✈ 13-Aug-2013 ✈ KDFW - SBGR / GRU

Flight Track Log - Related Links

Times and Time Zones

All times are in EDT time to prevent confusion due to time zone crossing. See the AAL963 flight status page for this flight to view local times or setup timezone preferences in your user account.

Time Position Orientation Groundspeed Altitude Reporting Facility
EDT Latitude Longitude Course Direction KTS MPH feet Rate Location/Type
10:05PM 32.8780 -97.0510 180° South 186 214 1,200  Level FlightAware
10:06PM 32.8580 -97.0510 180° South 198 228 1,900 1,500 Climbing FlightAware
10:06PM 32.8370 -97.0520 182° South 220 253 2,300 1,140 Climbing FlightAware
10:07PM 32.8100 -97.0520 180° South 253 291 2,800 1,500 Climbing FlightAware
10:07PM 32.7910 -97.0520 180° South 264 304 3,300 2,160 Climbing FlightAware
10:07PM 32.7650 -97.0530 182° South 269 310 4,100 2,400 Climbing FlightAware
10:07PM 32.7430 -97.0490 171° South 268 308 5,000 2,400 Climbing FlightAware
10:08PM 32.7250 -97.0440 167° South 274 315 5,600 2,400 Climbing FlightAware
10:08PM 32.6970 -97.0480 187° South 276 318 6,400 2,220 Climbing FlightAware
10:08PM 32.6650 -97.0530 187° South 288 331 7,200 2,160 Climbing FlightAware
10:09PM 32.6380 -97.0580 189° South 291 335 8,000 2,400 Climbing FlightAware
10:09PM 32.6130 -97.0620 188° South 294 338 8,800 2,460 Climbing FlightAware
10:09PM 32.5870 -97.0660 187° South 297 342 9,600 1,980 Climbing FlightAware
10:10PM 32.5340 -97.0750 188° South 321 369 10,700 1,440 Climbing FlightAware
10:11PM 32.4830 -97.0830 188° South 357 411 11,300 1,260 Climbing FlightAware
10:11PM 32.4200 -97.0940 188° South 394 453 12,200 1,920 Climbing FlightAware
10:12PM 32.3500 -97.1050 188° South 409 471 13,700 2,520 Climbing FlightAware
10:12PM 32.2880 -97.1040 179° South 422 486 15,100 2,520 Climbing FlightAware
10:13PM 32.2170 -97.1010 178° South 430 495 16,600 2,400 Climbing FlightAware
10:14PM 32.1450 -97.0980 178° South 438 504 18,000 2,280 Climbing FlightAware
10:14PM 32.0673 -97.0814 170° South 445 512 19,400 2,160 Climbing FlightAware ADS-B
10:15PM 31.9960 -97.0650 169° South 456 525 20,700 1,980 Climbing FlightAware
10:15PM 31.9448 -97.0531 169° South 445 512 21,400 1,860 Climbing FlightAware ADS-B
10:16PM 31.8618 -97.0319 168° South 470 541 22,700 1,920 Climbing FlightAware ADS-B
10:16PM 31.8284 -97.0153 157° South 476 548 23,200 1,680 Climbing FlightAware ADS-B
10:17PM 31.7035 -96.9146 145° Southeast 483 556 25,100 1,620 Climbing FlightAware ADS-B
10:18PM 31.6144 -96.8282 140° Southeast 501 577 26,400 1,500 Climbing FlightAware ADS-B
10:19PM 31.5026 -96.7157 139° Southeast 512 589 28,000 1,200 Climbing FlightAware ADS-B
10:20PM 31.3896 -96.6035 140° Southeast 529 609 29,000 1,140 Climbing FlightAware ADS-B
10:21PM 31.3318 -96.5464 140° Southeast 529 609 29,800 1,920 Climbing FlightAware ADS-B
10:22PM 31.1887 -96.4037 138° Southeast 516 594 32,500 1,200 Climbing FlightAware ADS-B
10:23PM 31.0702 -96.2286 125° Southeast 506 582 33,000 240 Climbing FlightAware ADS-B
10:24PM 31.0295 -96.1616 125° Southeast 506 582 33,000  Level FlightAware ADS-B
10:24PM 30.9888 -96.0951 126° Southeast 505 581 33,000  Level FlightAware ADS-B
10:25PM 30.9444 -96.0230 126° Southeast 505 581 33,000  Level FlightAware ADS-B
10:25PM 30.9031 -95.9563 126° Southeast 505 581 33,000  Level FlightAware ADS-B
10:26PM 30.8621 -95.8901 126° Southeast 504 580 33,000  Level FlightAware ADS-B
10:26PM 30.8210 -95.8240 126° Southeast 503 579 33,000  Level FlightAware ADS-B
10:27PM 30.7799 -95.7579 126° Southeast 503 579 33,000  Level FlightAware ADS-B
10:27PM 30.7379 -95.6904 126° Southeast 501 577 33,000  Level FlightAware ADS-B
10:31PM 30.4407 -95.2165 126° Southeast 506 582 33,000  Level FlightAware ADS-B
10:31PM 30.3990 -95.1502 126° Southeast 507 583 33,000  Level FlightAware ADS-B
10:32PM 30.3129 -95.0142 126° Southeast 507 583 33,000  Level FlightAware ADS-B
10:36PM 30.0168 -94.5495 126° Southeast 505 581 33,000  Level FlightAware ADS-B
10:37PM 29.9748 -94.4840 126° Southeast 505 581 33,000  Level FlightAware ADS-B
10:38PM 29.8901 -94.3524 127° Southeast 504 580 33,000  Level FlightAware ADS-B
10:38PM 29.8470 -94.2856 127° Southeast 503 579 33,000  Level FlightAware ADS-B
10:39PM 29.8028 -94.2172 127° Southeast 504 580 33,000  Level FlightAware ADS-B
10:39PM 29.7610 -94.1525 127° Southeast 504 580 33,000  Level FlightAware ADS-B
10:40PM 29.7194 -94.0883 127° Southeast 502 578 33,000  Level FlightAware ADS-B
10:40PM 29.7054 -94.0684 129° Southeast 502 578 33,000  Level FlightAware ADS-B
10:40PM 29.6464 -94.0037 139° Southeast 506 582 33,000  Level FlightAware ADS-B
10:41PM 29.5895 -93.9539 143° Southeast 508 585 33,000  Level FlightAware ADS-B
10:42PM 29.4078 -93.7999 144° Southeast 500 575 33,000  Level FlightAware ADS-B
10:43PM 29.3485 -93.7495 143° Southeast 497 572 33,000  Level FlightAware ADS-B
10:44PM 29.2909 -93.7004 143° Southeast 497 572 33,000  Level FlightAware ADS-B
10:45PM 29.1232 -93.5581 143° Southeast 495 570 33,000  Level FlightAware ADS-B
10:46PM 29.0022 -93.4553 143° Southeast 498 573 33,000  Level Houston Center
10:47PM 28.8917 -93.3622 144° Southeast 495 570 33,000 -60 Level Houston Center
10:48PM 28.7817 -93.2683 143° Southeast 494 568 32,900  Descending Houston Center
10:49PM 28.6708 -93.1772 144° Southeast 493 567 33,000  Climbing Houston Center
10:50PM 28.5586 -93.0833 144° Southeast 500 575 32,900  Descending Houston Center
10:51PM 28.4486 -92.9903 143° Southeast 495 570 33,000  Climbing Houston Center
10:52PM 28.3367 -92.8994 144° Southeast 496 571 33,000 -60 Level Houston Center
10:53PM 28.2281 -92.8072 143° Southeast 489 563 32,900  Descending Houston Center
10:54PM 28.1178 -92.7175 144° Southeast 489 563 33,000  Climbing Houston Center
10:55PM 28.0081 -92.6269 144° Southeast 488 562 32,900  Descending Houston Center
10:56PM 27.8750 -92.5183 144° Southeast 490 564 33,000  Climbing Houston Center
10:57PM 27.7633 -92.4275 144° Southeast 495 570 33,000 -60 Level Houston Center
10:58PM 27.6525 -92.3364 144° Southeast 495 570 32,900  Descending Houston Center
10:59PM 27.5408 -92.2458 144° Southeast 494 568 33,000  Climbing Houston Center
11:00PM 27.4292 -92.1553 144° Southeast 494 568 32,900  Descending Houston Center
11:01PM 27.3172 -92.0658 145° Southeast 493 567 33,000  Climbing Houston Center
11:02PM 27.2039 -91.9744 144° Southeast 498 573 32,900  Descending Houston Center
11:04PM 27.0911 -91.8828 144° Southeast 500 575 33,000  Climbing Houston Center
11:05PM 26.9783 -91.7919 144° Southeast 500 575 32,900 -60 Descending Houston Center
11:06PM 26.8522 -91.6911 144° Southeast 493 567 32,900  Level Houston Center
11:07PM 26.7444 -91.6069 145° Southeast 495 570 32,900 60 Level Houston Center
11:09PM 26.5317 -91.4321 144° Southeast  Level FlightAware Approximate
11:16PM 25.7638 -90.8287 145° Southeast  Level FlightAware Approximate
11:17PM 25.6542 -90.7428 145° Southeast  Level FlightAware Approximate
11:18PM 25.5445 -90.6570 145° Southeast  Level FlightAware Approximate
11:19PM 25.4347 -90.5714 145° Southeast  Level FlightAware Approximate
11:20PM 25.3249 -90.4860 145° Southeast  Level FlightAware Approximate
11:21PM 25.2150 -90.4007 145° Southeast  Level FlightAware Approximate
11:22PM 25.1052 -90.3155 145° Southeast  Level FlightAware Approximate
11:23PM 24.9952 -90.2305 145° Southeast  Level FlightAware Approximate
11:24PM 24.8852 -90.1457 145° Southeast  Level FlightAware Approximate
11:25PM 24.7752 -90.0610 145° Southeast  Level FlightAware Approximate
11:26PM 24.6651 -89.9764 145° Southeast  Level FlightAware Approximate
11:27PM 24.5549 -89.8920 145° Southeast  Level FlightAware Approximate
11:28PM 24.4461 -89.8060 146° Southeast  Level FlightAware Approximate
11:29PM 24.3344 -89.7242 146° Southeast  Level FlightAware Approximate
11:30PM 24.2227 -89.6426 146° Southeast  Level FlightAware Approximate
11:31PM 24.1110 -89.5611 146° Southeast  Level FlightAware Approximate
11:32PM 24.0003 -89.4779 145° Southeast  Level FlightAware Approximate
11:33PM 23.8909 -89.3928 145° Southeast  Level FlightAware Approximate
11:33PM 23.8930 -89.2650 145° Southeast 492 566 35,000  Level FlightAware
11:33PM 23.8560 -89.1980 121° Southeast 492 566 35,000  Level FlightAware
11:34PM 23.8200 -89.1320 121° Southeast 492 566 35,000  Level FlightAware
11:34PM 23.7830 -89.0640 121° Southeast 492 566 35,000  Level FlightAware
11:35PM 23.7470 -88.9980 121° Southeast 492 566 35,000  Level FlightAware
11:36PM 23.7110 -88.9330 121° Southeast 492 566 35,000  Level FlightAware
11:36PM 23.6750 -88.8680 121° Southeast 492 566 35,000  Level FlightAware
11:37PM 23.6390 -88.8030 121° Southeast 492 566 35,000  Level FlightAware
11:37PM 23.6020 -88.7360 121° Southeast 492 566 35,000  Level FlightAware
11:38PM 23.5660 -88.6710 121° Southeast 492 566 35,000  Level FlightAware
11:39PM 23.5290 -88.6040 121° Southeast 492 566 35,000  Level FlightAware
11:39PM 23.4930 -88.5370 120° Southeast 492 566 35,000  Level FlightAware
11:39PM 23.2000 -88.5670 185° South 495 570 35,000  Level FlightAware
11:40PM 23.1360 -88.5100 141° Southeast 495 570 35,000  Level FlightAware
11:41PM 23.0810 -88.4620 141° Southeast 495 570 35,000  Level FlightAware
11:41PM 23.0190 -88.4100 142° Southeast 529 609 35,000  Level FlightAware
11:42PM 22.9550 -88.3540 141° Southeast 489 563 35,000  Level FlightAware
11:42PM 22.9000 -88.3070 142° Southeast 490 564 35,000  Level FlightAware
11:43PM 22.8120 -88.2310 141° Southeast 489 563 35,000  Level FlightAware
11:44PM 22.7560 -88.1830 142° Southeast 485 558 35,000  Level FlightAware
11:44PM 22.6900 -88.1270 142° Southeast 483 556 35,000  Level FlightAware
11:45PM 22.6330 -88.0770 141° Southeast 483 556 35,000  Level FlightAware
11:45PM 22.5870 -88.0370 141° Southeast 486 559 35,000  Level FlightAware
11:46PM 22.5210 -87.9810 142° Southeast 489 563 35,000  Level FlightAware
11:47PM 22.4520 -87.9230 142° Southeast 491 565 35,000  Level FlightAware
11:47PM 22.3800 -87.8610 141° Southeast 492 566 35,000  Level FlightAware
11:48PM 22.3150 -87.8060 142° Southeast 490 564 35,000  Level FlightAware
11:49PM 22.2480 -87.7490 142° Southeast 488 562 35,000  Level FlightAware
11:49PM 22.1930 -87.7020 142° Southeast 487 560 35,000  Level FlightAware
11:50PM 22.1250 -87.6440 142° Southeast 487 560 35,000  Level FlightAware
11:50PM 22.0680 -87.5960 142° Southeast 487 560 35,000  Level FlightAware
11:51PM 22.0040 -87.5420 142° Southeast 487 560 35,000  Level FlightAware
11:51PM 21.9370 -87.4850 142° Southeast 487 560 35,000  Level FlightAware
11:52PM 21.8630 -87.4220 142° Southeast 487 560 35,000  Level FlightAware
11:53PM 21.7970 -87.3660 142° Southeast 487 560 35,000  Level FlightAware
11:53PM 21.7330 -87.3120 142° Southeast 487 560 35,000  Level FlightAware
11:54PM 21.6740 -87.2630 142° Southeast 487 560 35,000  Level FlightAware
11:54PM 21.6140 -87.2120 142° Southeast 488 562 35,000  Level FlightAware
11:55PM 21.5520 -87.1600 142° Southeast 487 560 35,000  Level FlightAware
11:56PM 21.4840 -87.1030 142° Southeast 489 563 35,000  Level FlightAware
11:56PM 21.4260 -87.0550 142° Southeast 489 563 35,000  Level FlightAware
11:57PM 21.3630 -87.0020 142° Southeast 487 560 35,000  Level FlightAware
11:57PM 21.3020 -86.9510 142° Southeast 488 562 35,000  Level FlightAware
11:58PM 21.2370 -86.8960 142° Southeast 489 563 35,000  Level FlightAware
11:58PM 21.1780 -86.8470 142° Southeast 489 563 35,000  Level FlightAware
11:59PM 21.1150 -86.7950 142° Southeast 486 559 35,000  Level FlightAware
12:00AM 21.0480 -86.7390 142° Southeast 485 558 35,000  Level FlightAware
12:00AM 20.9830 -86.6850 142° Southeast 485 558 35,000  Level FlightAware
12:01AM 20.9260 -86.6370 142° Southeast 484 557 35,000  Level FlightAware
12:01AM 20.8630 -86.5850 142° Southeast 486 559 35,000  Level FlightAware
12:02AM 20.8000 -86.5320 142° Southeast 483 556 35,000  Level FlightAware
12:03AM 20.7400 -86.4830 143° Southeast 481 554 35,000  Level FlightAware
12:03AM 20.6670 -86.4230 142° Southeast 480 552 35,000  Level FlightAware
12:04AM 20.6020 -86.3690 142° Southeast 479 551 35,000  Level FlightAware
12:04AM 20.5440 -86.3210 142° Southeast 477 549 35,000  Level FlightAware
12:05AM 20.4630 -86.2540 142° Southeast 477 549 35,000  Level FlightAware
12:06AM 20.4100 -86.2090 141° Southeast 477 549 35,000  Level FlightAware
12:06AM 20.3440 -86.1560 143° Southeast 479 551 35,000  Level FlightAware
12:07AM 20.2870 -86.1090 142° Southeast 479 551 35,000  Level FlightAware
12:08AM 20.2340 -86.0650 142° Southeast 479 551 35,000  Level FlightAware
12:08AM 20.1810 -86.0200 141° Southeast 479 551 35,000  Level FlightAware
12:09AM 20.1270 -85.9760 143° Southeast 479 551 35,000  Level FlightAware
12:09AM 20.0230 -85.8920 143° Southeast 484 557 35,000  Level FlightAware
12:10AM 19.9640 -85.8360 138° Southeast 485 558 35,000  Level FlightAware
12:10AM 19.9100 -85.7860 139° Southeast 484 557 35,000  Level FlightAware
12:11AM 19.8500 -85.7270 137° Southeast 482 555 35,000  Level FlightAware
12:12AM 19.7910 -85.6640 135° Southeast 482 555 35,000  Level FlightAware
12:12AM 19.7400 -85.6090 135° Southeast 485 558 35,000  Level FlightAware
12:13AM 19.6820 -85.5470 135° Southeast 483 556 35,000  Level FlightAware
12:14AM 19.6080 -85.4680 135° Southeast 484 557 35,000  Level FlightAware
12:14AM 19.5430 -85.3990 135° Southeast 478 550 35,000  Level FlightAware
12:15AM 19.4740 -85.3250 135° Southeast 478 550 35,000  Level FlightAware
12:16AM 19.4160 -85.2640 135° Southeast 477 549 35,000  Level FlightAware
12:16AM 19.3560 -85.2010 135° Southeast 475 547 35,000  Level FlightAware
12:17AM 19.3080 -85.1480 134° Southeast 475 547 35,000  Level FlightAware
12:17AM 19.2500 -85.0870 135° Southeast 474 545 35,000  Level FlightAware
12:18AM 19.1970 -85.0300 135° Southeast 475 547 35,000  Level FlightAware
12:19AM 19.1500 -84.9790 134° Southeast 475 547 35,000  Level FlightAware
12:19AM 19.1040 -84.9280 134° Southeast 475 547 35,000  Level FlightAware
12:20AM 19.0570 -84.8770 134° Southeast 475 547 35,000  Level FlightAware
12:20AM 19.0100 -84.8260 134° Southeast 475 547 35,000  Level FlightAware
12:21AM 18.9640 -84.7740 133° Southeast 475 547 35,000  Level FlightAware
12:22AM 18.9170 -84.7230 134° Southeast 475 547 35,000  Level FlightAware
12:22AM 18.8700 -84.6720 134° Southeast 475 547 35,000  Level FlightAware
12:23AM 18.8230 -84.6210 134° Southeast 475 547 35,000  Level FlightAware
12:23AM 18.7770 -84.5700 134° Southeast 475 547 35,000  Level FlightAware
12:24AM 18.7300 -84.5190 134° Southeast 475 547 35,000  Level FlightAware
12:25AM 18.6830 -84.4680 134° Southeast 475 547 35,000  Level FlightAware
12:25AM 18.6350 -84.4150 134° Southeast 475 547 35,000  Level FlightAware
12:26AM 18.5890 -84.3640 134° Southeast 475 547 35,000  Level FlightAware
12:26AM 18.5420 -84.3130 134° Southeast 475 547 35,000  Level FlightAware
12:27AM 18.4940 -84.2610 134° Southeast 475 547 35,000  Level FlightAware
12:30AM 18.2802 -84.0070 132° Southeast  Level FlightAware Approximate
12:31AM 18.1911 -83.9014 132° Southeast  Level FlightAware Approximate
12:32AM 18.1018 -83.7959 132° Southeast  Level FlightAware Approximate
12:33AM 18.0126 -83.6904 132° Southeast  Level FlightAware Approximate
12:34AM 17.9179 -83.5835 135° Southeast  Level FlightAware Approximate
12:35AM 17.8221 -83.4847 135° Southeast  Level FlightAware Approximate
12:36AM 17.7263 -83.3859 136° Southeast  Level FlightAware Approximate
12:37AM 17.6305 -83.2873 136° Southeast  Level FlightAware Approximate
12:38AM 17.5346 -83.1888 136° Southeast  Level FlightAware Approximate
12:39AM 17.4386 -83.0904 136° Southeast  Level FlightAware Approximate
12:40AM 17.3414 -82.9935 139° Southeast  Level FlightAware Approximate
12:41AM 17.2402 -82.9011 139° Southeast  Level FlightAware Approximate
12:42AM 17.1391 -82.8087 139° Southeast  Level FlightAware Approximate
12:43AM 17.0379 -82.7165 139° Southeast  Level FlightAware Approximate
12:44AM 16.9366 -82.6243 139° Southeast  Level FlightAware Approximate
12:45AM 16.8353 -82.5323 139° Southeast  Level FlightAware Approximate
12:46AM 16.7340 -82.4403 139° Southeast  Level FlightAware Approximate
12:47AM 16.6326 -82.3485 139° Southeast  Level FlightAware Approximate
12:48AM 16.5312 -82.2567 139° Southeast  Level FlightAware Approximate
12:49AM 16.4315 -82.1631 134° Southeast  Level FlightAware Approximate
12:50AM 16.3388 -82.0619 134° Southeast  Level FlightAware Approximate
12:51AM 16.2460 -81.9609 134° Southeast  Level FlightAware Approximate
12:52AM 16.1532 -81.8599 134° Southeast  Level FlightAware Approximate
12:53AM 16.0604 -81.7590 134° Southeast  Level FlightAware Approximate
12:54AM 15.9675 -81.6582 134° Southeast  Level FlightAware Approximate
12:55AM 15.8745 -81.5574 134° Southeast  Level FlightAware Approximate
12:56AM 15.7816 -81.4568 134° Southeast  Level FlightAware Approximate
12:57AM 15.6885 -81.3563 134° Southeast  Level FlightAware Approximate
12:58AM 15.5954 -81.2559 134° Southeast  Level FlightAware Approximate
12:59AM 15.5023 -81.1555 134° Southeast  Level FlightAware Approximate
01:00AM 15.4091 -81.0553 134° Southeast  Level FlightAware Approximate
01:01AM 15.3159 -80.9551 134° Southeast  Level FlightAware Approximate
01:02AM 15.2227 -80.8550 134° Southeast  Level FlightAware Approximate
01:03AM 15.1294 -80.7551 134° Southeast  Level FlightAware Approximate
01:04AM 15.0360 -80.6552 134° Southeast  Level FlightAware Approximate
01:05AM 14.9350 -80.5641 142° Southeast  Level FlightAware Approximate
01:06AM 14.8291 -80.4788 142° Southeast  Level FlightAware Approximate
01:07AM 14.7232 -80.3934 142° Southeast  Level FlightAware Approximate
01:08AM 14.6173 -80.3082 142° Southeast  Level FlightAware Approximate
01:09AM 14.5113 -80.2231 142° Southeast  Level FlightAware Approximate
01:10AM 14.4054 -80.1380 142° Southeast  Level FlightAware Approximate
01:11AM 14.2993 -80.0530 142° Southeast  Level FlightAware Approximate
01:12AM 14.1933 -79.9681 142° Southeast  Level FlightAware Approximate
01:13AM 14.0872 -79.8832 142° Southeast  Level FlightAware Approximate
01:14AM 13.9811 -79.7985 142° Southeast  Level FlightAware Approximate
01:15AM 13.8750 -79.7138 142° Southeast  Level FlightAware Approximate
01:16AM 13.7689 -79.6292 142° Southeast  Level FlightAware Approximate
01:17AM 13.6627 -79.5447 142° Southeast  Level FlightAware Approximate
01:18AM 13.5564 -79.4603 142° Southeast  Level FlightAware Approximate
01:19AM 13.4502 -79.3759 142° Southeast  Level FlightAware Approximate
01:20AM 13.3439 -79.2916 142° Southeast  Level FlightAware Approximate
01:21AM 13.2376 -79.2074 142° Southeast  Level FlightAware Approximate
01:22AM 13.1313 -79.1233 142° Southeast  Level FlightAware Approximate
01:23AM 13.0249 -79.0392 142° Southeast  Level FlightAware Approximate
01:24AM 12.9185 -78.9552 142° Southeast  Level FlightAware Approximate
01:25AM 12.8121 -78.8713 142° Southeast  Level FlightAware Approximate
01:26AM 12.7057 -78.7874 142° Southeast  Level FlightAware Approximate
01:27AM 12.5992 -78.7036 142° Southeast  Level FlightAware Approximate
01:28AM 12.4927 -78.6199 142° Southeast  Level FlightAware Approximate
01:29AM 12.3862 -78.5362 143° Southeast  Level FlightAware Approximate
01:30AM 12.2797 -78.4527 143° Southeast  Level FlightAware Approximate
01:31AM 12.1731 -78.3691 143° Southeast  Level FlightAware Approximate
01:32AM 12.0665 -78.2857 143° Southeast  Level FlightAware Approximate
01:33AM 11.9599 -78.2023 143° Southeast  Level FlightAware Approximate
01:34AM 11.8532 -78.1190 143° Southeast  Level FlightAware Approximate
01:35AM 11.7466 -78.0358 143° Southeast  Level FlightAware Approximate
01:36AM 11.6399 -77.9526 143° Southeast  Level FlightAware Approximate
01:37AM 11.5332 -77.8695 143° Southeast  Level FlightAware Approximate
01:38AM 11.4264 -77.7864 143° Southeast  Level FlightAware Approximate
01:39AM 11.3197 -77.7034 143° Southeast  Level FlightAware Approximate
01:40AM 11.2129 -77.6205 143° Southeast  Level FlightAware Approximate
01:41AM 11.1061 -77.5376 143° Southeast  Level FlightAware Approximate
01:42AM 10.9992 -77.4548 143° Southeast  Level FlightAware Approximate
01:42AM 10.9580 -77.4160 137° Southeast 473 544 35,000  Level FlightAware
01:43AM 10.8967 -77.3669 137° Southeast  Level FlightAware Approximate
01:43AM 10.8960 -77.3590 138° Southeast 471 542 35,000  Level FlightAware
01:44AM 10.8500 -77.3160 137° Southeast 469 540 35,000  Level FlightAware
01:44AM 10.7860 -77.2550 137° Southeast 469 540 35,000  Level FlightAware
01:45AM 10.7370 -77.2090 137° Southeast 469 540 35,000  Level FlightAware
01:45AM 10.6880 -77.1610 136° Southeast 469 540 35,000  Level FlightAware
01:46AM 10.6390 -77.1130 136° Southeast 469 540 35,000  Level FlightAware
01:47AM 10.5910 -77.0660 136° Southeast 469 540 35,000  Level FlightAware
01:47AM 10.5420 -77.0280 143° Southeast 469 540 35,000  Level FlightAware
01:47AM 10.4850 -76.9740 137° Southeast 469 540 35,000  Level FlightAware
01:48AM 10.4310 -76.9250 138° Southeast 468 539 35,000  Level FlightAware
01:49AM 10.3660 -76.8650 138° Southeast 468 539 35,000  Level FlightAware
01:49AM 10.2930 -76.7970 137° Southeast 468 539 35,000  Level FlightAware
01:50AM 10.2350 -76.7430 138° Southeast 468 539 35,000  Level FlightAware
01:51AM 10.1710 -76.6830 137° Southeast 467 537 35,000  Level FlightAware
01:51AM 10.1150 -76.6320 138° Southeast 468 539 35,000  Level FlightAware
01:52AM 10.0590 -76.5790 137° Southeast 469 540 35,000  Level FlightAware
01:52AM 10.0070 -76.5310 138° Southeast 468 539 35,000  Level FlightAware
01:53AM 9.9310 -76.4610 138° Southeast 466 536 35,000  Level FlightAware
01:54AM 9.8480 -76.3840 138° Southeast 462 532 35,000  Level FlightAware
01:55AM 9.7840 -76.3260 138° Southeast 462 532 35,000  Level FlightAware
01:55AM 9.7270 -76.2720 137° Southeast 461 531 35,000  Level FlightAware
01:56AM 9.6740 -76.2210 137° Southeast 461 531 35,000  Level FlightAware
01:56AM 9.6270 -76.1750 136° Southeast 461 531 35,000  Level FlightAware
01:57AM 9.5810 -76.1290 135° Southeast 461 531 35,000  Level FlightAware
01:58AM 9.5320 -76.0820 137° Southeast 461 531 35,000  Level FlightAware
01:58AM 9.4850 -76.0360 136° Southeast 461 531 35,000  Level FlightAware
01:59AM 9.4380 -75.9900 136° Southeast 461 531 35,000  Level FlightAware
01:59AM 9.3910 -75.9440 136° Southeast 461 531 35,000  Level FlightAware
02:00AM 9.3440 -75.8980 136° Southeast 461 531 35,000  Level FlightAware
02:01AM 9.2980 -75.8520 135° Southeast 461 531 35,000  Level FlightAware
02:01AM 9.2530 -75.8090 137° Southeast 461 531 35,000  Level FlightAware
02:02AM 9.2060 -75.7630 136° Southeast 461 531 35,000  Level FlightAware
02:02AM 9.1590 -75.7170 136° Southeast 461 531 35,000  Level FlightAware
02:03AM 9.1120 -75.6710 136° Southeast 461 531 35,000  Level FlightAware
02:04AM 9.0650 -75.6250 136° Southeast 461 531 35,000  Level FlightAware
02:04AM 9.0180 -75.5790 136° Southeast 461 531 35,000  Level FlightAware
02:05AM 8.9720 -75.5330 135° Southeast 461 531 35,000  Level FlightAware
02:07AM 8.7978 -75.3810 139° Southeast  Level FlightAware Approximate
02:08AM 8.6962 -75.2925 139° Southeast  Level FlightAware Approximate
02:09AM 8.5947 -75.2041 139° Southeast  Level FlightAware Approximate
02:10AM 8.4931 -75.1158 139° Southeast  Level FlightAware Approximate
02:11AM 8.3915 -75.0274 139° Southeast  Level FlightAware Approximate
02:12AM 8.2899 -74.9392 139° Southeast  Level FlightAware Approximate
02:13AM 8.1883 -74.8509 139° Southeast  Level FlightAware Approximate
02:14AM 8.0866 -74.7627 139° Southeast  Level FlightAware Approximate
02:15AM 7.9850 -74.6746 139° Southeast  Level FlightAware Approximate
02:16AM 7.8833 -74.5865 139° Southeast  Level FlightAware Approximate
02:17AM 7.7810 -74.4979 138° Southeast  Level FlightAware Approximate
02:18AM 7.6818 -74.4071 138° Southeast  Level FlightAware Approximate
02:19AM 7.5825 -74.3163 138° Southeast  Level FlightAware Approximate
02:20AM 7.4832 -74.2255 138° Southeast  Level FlightAware Approximate
02:21AM 7.3839 -74.1348 138° Southeast  Level FlightAware Approximate
02:22AM 7.2845 -74.0442 138° Southeast  Level FlightAware Approximate
02:23AM 7.1852 -73.9536 138° Southeast  Level FlightAware Approximate
02:24AM 7.0858 -73.8630 138° Southeast  Level FlightAware Approximate
02:24AM 6.8660 -73.7170 138° Southeast 491 565 35,000  Level FlightAware
02:25AM 6.7960 -73.6800 152° Southeast 492 566 35,000  Level FlightAware
02:25AM 6.7300 -73.6440 152° Southeast 491 565 35,000  Level FlightAware
02:26AM 6.6570 -73.6050 152° Southeast 492 566 35,000  Level FlightAware
02:27AM 6.5850 -73.5660 152° Southeast 491 565 35,000  Level FlightAware
02:27AM 6.5140 -73.5270 151° Southeast 492 566 35,000  Level FlightAware
02:28AM 6.4490 -73.4920 152° Southeast 490 564 35,000  Level FlightAware
02:28AM 6.3780 -73.4530 151° Southeast 490 564 35,000  Level FlightAware
02:29AM 6.3060 -73.4140 152° Southeast 491 565 35,000  Level FlightAware
02:29AM 6.2390 -73.3790 153° Southeast 493 567 35,000  Level FlightAware
02:30AM 6.1640 -73.3380 151° Southeast 493 567 35,000  Level FlightAware
02:31AM 6.0910 -73.2980 151° Southeast 491 565 35,000  Level FlightAware
02:31AM 6.0290 -73.2630 151° Southeast 491 565 35,000  Level FlightAware
02:32AM 5.9680 -73.2290 151° Southeast 491 565 35,000  Level FlightAware
02:33AM 5.9070 -73.1950 151° Southeast 491 565 35,000  Level FlightAware
02:33AM 5.8460 -73.1620 152° Southeast 491 565 35,000  Level FlightAware
02:34AM 5.7860 -73.1280 151° Southeast 491 565 35,000 1,680 Level FlightAware
02:34AM 5.6530 -73.0630 154° Southeast 483 556 37,000 1,680 Climbing FlightAware
02:35AM 5.5850 -73.0260 152° Southeast 484 557 37,000  Level FlightAware
02:36AM 5.5110 -72.9860 152° Southeast 483 556 37,000  Level FlightAware
02:36AM 5.4440 -72.9500 152° Southeast 484 557 37,000  Level FlightAware
02:37AM 5.3800 -72.9160 152° Southeast 484 557 37,000  Level FlightAware
02:37AM 5.3090 -72.8770 151° Southeast 482 555 37,000  Level FlightAware
02:38AM 5.2350 -72.8380 152° Southeast 484 557 37,000  Level FlightAware
02:38AM 5.1710 -72.8040 152° Southeast 485 558 37,000  Level FlightAware
02:39AM 5.1010 -72.7660 152° Southeast 485 558 37,000  Level FlightAware
02:40AM 5.0350 -72.7300 151° Southeast 485 558 37,000  Level FlightAware
02:40AM 4.9750 -72.6960 151° Southeast 485 558 37,000  Level FlightAware
02:41AM 4.9150 -72.6630 151° Southeast 485 558 37,000  Level FlightAware
02:41AM 4.8540 -72.6280 150° Southeast 485 558 37,000  Level FlightAware
02:42AM 4.7940 -72.5950 151° Southeast 485 558 37,000  Level FlightAware
02:43AM 4.7330 -72.5620 152° Southeast 485 558 37,000  Level FlightAware
02:43AM 4.6730 -72.5280 151° Southeast 485 558 37,000  Level FlightAware
02:44AM 4.6130 -72.4950 151° Southeast 485 558 37,000  Level FlightAware
02:44AM 4.5520 -72.4600 150° Southeast 485 558 37,000  Level FlightAware
02:45AM 4.4920 -72.4270 151° Southeast 485 558 37,000  Level FlightAware
02:46AM 4.4320 -72.3940 151° Southeast 485 558 37,000  Level FlightAware
02:46AM 4.3720 -72.3600 151° Southeast 485 558 37,000  Level FlightAware
02:47AM 4.3110 -72.3270 152° Southeast 485 558 37,000  Level FlightAware
02:47AM 4.2500 -72.2930 151° Southeast 485 558 37,000  Level FlightAware
02:48AM 4.1900 -72.2590 151° Southeast 485 558 37,000  Level FlightAware
02:49AM 4.1300 -72.2260 151° Southeast 485 558 37,000  Level FlightAware
02:51AM 3.9100 -72.1169 145° Southeast  Level FlightAware Approximate
02:52AM 3.8005 -72.0396 145° Southeast  Level FlightAware Approximate
02:53AM 3.6909 -71.9623 145° Southeast  Level FlightAware Approximate
02:54AM 3.5813 -71.8850 145° Southeast  Level FlightAware Approximate
02:55AM 3.4718 -71.8077 145° Southeast  Level FlightAware Approximate
02:56AM 3.3622 -71.7305 145° Southeast  Level FlightAware Approximate
02:57AM 3.2526 -71.6533 145° Southeast  Level FlightAware Approximate
02:58AM 3.1430 -71.5760 145° Southeast  Level FlightAware Approximate
02:59AM 3.0334 -71.4988 145° Southeast  Level FlightAware Approximate
03:00AM 2.9238 -71.4217 145° Southeast  Level FlightAware Approximate
03:01AM 2.8142 -71.3445 145° Southeast  Level FlightAware Approximate
03:02AM 2.7045 -71.2674 145° Southeast  Level FlightAware Approximate
03:03AM 2.5949 -71.1902 145° Southeast  Level FlightAware Approximate
03:04AM 2.4853 -71.1131 145° Southeast  Level FlightAware Approximate
03:05AM 2.3757 -71.0360 145° Southeast  Level FlightAware Approximate
03:06AM 2.2660 -70.9589 145° Southeast  Level FlightAware Approximate
03:07AM 2.1564 -70.8818 145° Southeast  Level FlightAware Approximate
03:08AM 2.0467 -70.8047 145° Southeast  Level FlightAware Approximate
03:09AM 1.9371 -70.7277 145° Southeast  Level FlightAware Approximate
03:10AM 1.8274 -70.6506 145° Southeast  Level FlightAware Approximate
03:11AM 1.7178 -70.5736 145° Southeast  Level FlightAware Approximate
03:12AM 1.6081 -70.4966 145° Southeast  Level FlightAware Approximate
03:13AM 1.4985 -70.4195 145° Southeast  Level FlightAware Approximate
03:14AM 1.3888 -70.3425 145° Southeast  Level FlightAware Approximate
03:15AM 1.2791 -70.2655 145° Southeast  Level FlightAware Approximate
03:16AM 1.1751 -70.1814 138° Southeast  Level FlightAware Approximate
03:17AM 1.0750 -70.0923 138° Southeast  Level FlightAware Approximate
03:18AM 0.9749 -70.0032 138° Southeast  Level FlightAware Approximate
03:19AM 0.8748 -69.9141 138° Southeast  Level FlightAware Approximate
03:20AM 0.7748 -69.8250 138° Southeast  Level FlightAware Approximate
03:21AM 0.6747 -69.7359 138° Southeast  Level FlightAware Approximate
03:22AM 0.5746 -69.6468 138° Southeast  Level FlightAware Approximate
03:23AM 0.4745 -69.5577 138° Southeast  Level FlightAware Approximate
03:24AM 0.3744 -69.4686 138° Southeast  Level FlightAware Approximate
03:25AM 0.2743 -69.3795 138° Southeast  Level FlightAware Approximate
03:26AM 0.1743 -69.2905 138° Southeast  Level FlightAware Approximate
03:27AM 0.0742 -69.2014 138° Southeast  Level FlightAware Approximate
03:28AM -0.0259 -69.1123 138° Southeast  Level FlightAware Approximate
03:29AM -0.1260 -69.0232 138° Southeast  Level FlightAware Approximate
03:30AM -0.2261 -68.9341 138° Southeast  Level FlightAware Approximate
03:31AM -0.3262 -68.8450 138° Southeast  Level FlightAware Approximate
03:32AM -0.4263 -68.7560 138° Southeast  Level FlightAware Approximate
03:33AM -0.5264 -68.6669 138° Southeast  Level FlightAware Approximate
03:34AM -0.6265 -68.5778 138° Southeast  Level FlightAware Approximate
03:35AM -0.7265 -68.4887 138° Southeast  Level FlightAware Approximate
03:36AM -0.8266 -68.3996 138° Southeast  Level FlightAware Approximate
03:37AM -0.9267 -68.3105 138° Southeast  Level FlightAware Approximate
03:38AM -1.0268 -68.2214 138° Southeast  Level FlightAware Approximate
03:39AM -1.1269 -68.1322 138° Southeast  Level FlightAware Approximate
03:40AM -1.2269 -68.0431 138° Southeast  Level FlightAware Approximate
03:41AM -1.3270 -67.9540 138° Southeast  Level FlightAware Approximate
03:42AM -1.4271 -67.8648 138° Southeast  Level FlightAware Approximate
03:43AM -1.5271 -67.7757 138° Southeast  Level FlightAware Approximate
03:44AM -1.6272 -67.6865 138° Southeast  Level FlightAware Approximate
03:45AM -1.7272 -67.5974 138° Southeast  Level FlightAware Approximate
03:46AM -1.8273 -67.5082 138° Southeast  Level FlightAware Approximate
03:47AM -1.9273 -67.4190 138° Southeast  Level FlightAware Approximate
03:48AM -2.0274 -67.3298 138° Southeast  Level FlightAware Approximate
03:49AM -2.1274 -67.2406 138° Southeast  Level FlightAware Approximate
03:50AM -2.2274 -67.1514 138° Southeast  Level FlightAware Approximate
03:51AM -2.3275 -67.0622 138° Southeast  Level FlightAware Approximate
03:52AM -2.4275 -66.9730 138° Southeast  Level FlightAware Approximate
03:53AM -2.5275 -66.8837 138° Southeast  Level FlightAware Approximate
03:54AM -2.6275 -66.7945 138° Southeast  Level FlightAware Approximate
03:55AM -2.7275 -66.7052 138° Southeast  Level FlightAware Approximate
03:56AM -2.8275 -66.6159 138° Southeast  Level FlightAware Approximate
03:57AM -2.9275 -66.5266 138° Southeast  Level FlightAware Approximate
03:58AM -3.0275 -66.4372 138° Southeast  Level FlightAware Approximate
03:59AM -3.1274 -66.3479 138° Southeast  Level FlightAware Approximate
04:00AM -3.2274 -66.2586 138° Southeast  Level FlightAware Approximate
04:01AM -3.3274 -66.1692 138° Southeast  Level FlightAware Approximate
04:02AM -3.4273 -66.0798 138° Southeast  Level FlightAware Approximate
04:03AM -3.5273 -65.9904 138° Southeast  Level FlightAware Approximate
04:04AM -3.6272 -65.9009 138° Southeast  Level FlightAware Approximate
04:05AM -3.7271 -65.8115 138° Southeast  Level FlightAware Approximate
04:06AM -3.8270 -65.7220 138° Southeast  Level FlightAware Approximate
04:07AM -3.9269 -65.6325 138° Southeast  Level FlightAware Approximate
04:08AM -4.0269 -65.5430 138° Southeast  Level FlightAware Approximate
04:09AM -4.1267 -65.4535 138° Southeast  Level FlightAware Approximate
04:10AM -4.2266 -65.3639 138° Southeast  Level FlightAware Approximate
04:11AM -4.3265 -65.2743 138° Southeast  Level FlightAware Approximate
04:12AM -4.4264 -65.1847 138° Southeast  Level FlightAware Approximate
04:13AM -4.5262 -65.0951 138° Southeast  Level FlightAware Approximate
04:14AM -4.6260 -65.0054 138° Southeast  Level FlightAware Approximate
04:15AM -4.7259 -64.9157 138° Southeast  Level FlightAware Approximate
04:16AM -4.8257 -64.8260 138° Southeast  Level FlightAware Approximate
04:17AM -4.9255 -64.7363 138° Southeast  Level FlightAware Approximate
04:18AM -5.0252 -64.6466 138° Southeast  Level FlightAware Approximate
04:19AM -5.1250 -64.5568 138° Southeast  Level FlightAware Approximate
04:20AM -5.2248 -64.4669 138° Southeast  Level FlightAware Approximate
04:21AM -5.3245 -64.3771 138° Southeast  Level FlightAware Approximate
04:22AM -5.4243 -64.2872 138° Southeast  Level FlightAware Approximate
04:23AM -5.5240 -64.1973 138° Southeast  Level FlightAware Approximate
04:24AM -5.6237 -64.1074 138° Southeast  Level FlightAware Approximate
04:25AM -5.7234 -64.0174 138° Southeast  Level FlightAware Approximate
04:26AM -5.8231 -63.9274 138° Southeast  Level FlightAware Approximate
04:27AM -5.9228 -63.8374 138° Southeast  Level FlightAware Approximate
04:28AM -6.0224 -63.7473 138° Southeast  Level FlightAware Approximate
04:29AM -6.1220 -63.6573 138° Southeast  Level FlightAware Approximate
04:30AM -6.2217 -63.5671 138° Southeast  Level FlightAware Approximate
04:31AM -6.3213 -63.4770 138° Southeast  Level FlightAware Approximate
04:32AM -6.4209 -63.3868 138° Southeast  Level FlightAware Approximate
04:33AM -6.5205 -63.2965 138° Southeast  Level FlightAware Approximate
04:34AM -6.6200 -63.2063 138° Southeast  Level FlightAware Approximate
04:35AM -6.7196 -63.1160 138° Southeast  Level FlightAware Approximate
04:36AM -6.8191 -63.0256 138° Southeast  Level FlightAware Approximate
04:37AM -6.9186 -62.9352 138° Southeast  Level FlightAware Approximate
04:38AM -7.0181 -62.8448 138° Southeast  Level FlightAware Approximate
04:39AM -7.1176 -62.7544 138° Southeast  Level FlightAware Approximate
04:40AM -7.2170 -62.6639 138° Southeast  Level FlightAware Approximate
04:41AM -7.3165 -62.5734 138° Southeast  Level FlightAware Approximate
04:42AM -7.4159 -62.4828 138° Southeast  Level FlightAware Approximate
04:43AM -7.5153 -62.3922 138° Southeast  Level FlightAware Approximate
04:44AM -7.6147 -62.3015 138° Southeast  Level FlightAware Approximate
04:45AM -7.7141 -62.2108 138° Southeast  Level FlightAware Approximate
04:46AM -7.8134 -62.1201 138° Southeast  Level FlightAware Approximate
04:47AM -7.9127 -62.0293 138° Southeast  Level FlightAware Approximate
04:48AM -8.0120 -61.9385 138° Southeast  Level FlightAware Approximate
04:49AM -8.1113 -61.8476 138° Southeast  Level FlightAware Approximate
04:50AM -8.2106 -61.7567 138° Southeast  Level FlightAware Approximate
04:51AM -8.3099 -61.6657 138° Southeast  Level FlightAware Approximate
04:52AM -8.4091 -61.5747 138° Southeast  Level FlightAware Approximate
04:53AM -8.5083 -61.4837 138° Southeast  Level FlightAware Approximate
04:54AM -8.6075 -61.3926 138° Southeast  Level FlightAware Approximate
04:55AM -8.7067 -61.3014 138° Southeast  Level FlightAware Approximate
04:56AM -8.8058 -61.2102 138° Southeast  Level FlightAware Approximate
04:57AM -8.9049 -61.1190 138° Southeast  Level FlightAware Approximate
04:58AM -9.0040 -61.0277 138° Southeast  Level FlightAware Approximate
04:59AM -9.1031 -60.9363 138° Southeast  Level FlightAware Approximate
05:00AM -9.2022 -60.8449 138° Southeast  Level FlightAware Approximate
05:01AM -9.3012 -60.7535 138° Southeast  Level FlightAware Approximate
05:02AM -9.4002 -60.6620 138° Southeast  Level FlightAware Approximate
05:03AM -9.4992 -60.5704 138° Southeast  Level FlightAware Approximate
05:04AM -9.5981 -60.4788 138° Southeast  Level FlightAware Approximate
05:05AM -9.6971 -60.3871 138° Southeast  Level FlightAware Approximate
05:06AM -9.7960 -60.2954 138° Southeast  Level FlightAware Approximate
05:07AM -9.8949 -60.2037 138° Southeast  Level FlightAware Approximate
05:08AM -9.9937 -60.1118 138° Southeast  Level FlightAware Approximate
05:09AM -10.0926 -60.0200 138° Southeast  Level FlightAware Approximate
05:10AM -10.1914 -59.9280 138° Southeast  Level FlightAware Approximate
05:11AM -10.2902 -59.8360 138° Southeast  Level FlightAware Approximate
05:12AM -10.3889 -59.7440 137° Southeast  Level FlightAware Approximate
05:13AM -10.4877 -59.6519 137° Southeast  Level FlightAware Approximate
05:14AM -10.5864 -59.5597 137° Southeast  Level FlightAware Approximate
05:15AM -10.6851 -59.4675 137° Southeast  Level FlightAware Approximate
05:16AM -10.7837 -59.3752 137° Southeast  Level FlightAware Approximate
05:17AM -10.8823 -59.2828 137° Southeast  Level FlightAware Approximate
05:18AM -10.9809 -59.1904 137° Southeast  Level FlightAware Approximate
05:19AM -11.0795 -59.0979 137° Southeast  Level FlightAware Approximate
05:20AM -11.1780 -59.0054 137° Southeast  Level FlightAware Approximate
05:21AM -11.2766 -58.9128 137° Southeast  Level FlightAware Approximate
05:22AM -11.3750 -58.8202 137° Southeast  Level FlightAware Approximate
05:23AM -11.4735 -58.7275 137° Southeast  Level FlightAware Approximate
05:24AM -11.5719 -58.6347 137° Southeast  Level FlightAware Approximate
05:25AM -11.6703 -58.5418 137° Southeast  Level FlightAware Approximate
05:26AM -11.7687 -58.4489 137° Southeast  Level FlightAware Approximate
05:27AM -11.8670 -58.3559 137° Southeast  Level FlightAware Approximate
05:28AM -11.9654 -58.2629 137° Southeast  Level FlightAware Approximate
05:29AM -12.0636 -58.1697 137° Southeast  Level FlightAware Approximate
05:30AM -12.1619 -58.0765 137° Southeast  Level FlightAware Approximate
05:31AM -12.2601 -57.9833 137° Southeast  Level FlightAware Approximate
05:32AM -12.3583 -57.8900 137° Southeast  Level FlightAware Approximate
05:33AM -12.4564 -57.7966 137° Southeast  Level FlightAware Approximate
05:34AM -12.5545 -57.7031 137° Southeast  Level FlightAware Approximate
05:35AM -12.6526 -57.6096 137° Southeast  Level FlightAware Approximate
05:36AM -12.7507 -57.5159 137° Southeast  Level FlightAware Approximate
05:36AM -13.0710 -56.7910 137° Southeast 522 601 37,000  Level FlightAware
05:37AM -12.8487 -57.4223 137° Southeast  Level FlightAware Approximate
05:37AM -13.1330 -56.7300 136° Southeast 523 602 37,000  Level FlightAware
05:37AM -13.2030 -56.6610 136° Southeast 523 602 37,000  Level FlightAware
05:38AM -13.2710 -56.5930 136° Southeast 523 602 37,000  Level FlightAware
05:39AM -13.3440 -56.5210 136° Southeast 523 602 37,000  Level FlightAware
05:39AM -13.4070 -56.4580 136° Southeast 523 602 37,000  Level FlightAware
05:40AM -13.4850 -56.3800 136° Southeast 525 604 37,000  Level FlightAware
05:41AM -13.5500 -56.3160 136° Southeast 525 604 37,000  Level FlightAware
05:41AM -13.6180 -56.2480 136° Southeast 527 606 37,000  Level FlightAware
05:42AM -13.6790 -56.1880 136° Southeast 528 608 37,000  Level FlightAware
05:42AM -13.7390 -56.1270 135° Southeast 528 608 37,000  Level FlightAware
05:43AM -13.8070 -56.0600 136° Southeast 528 608 37,000  Level FlightAware
05:44AM -13.8660 -56.0000 135° Southeast 528 608 37,000  Level FlightAware
05:44AM -13.9220 -55.9440 136° Southeast 528 608 37,000  Level FlightAware
05:45AM -13.9930 -55.8740 136° Southeast 526 605 37,000  Level FlightAware
05:45AM -14.0470 -55.8190 135° Southeast 526 605 37,000  Level FlightAware
05:46AM -14.1140 -55.7530 136° Southeast 527 606 37,000  Level FlightAware
05:47AM -14.1770 -55.6880 135° Southeast 526 605 37,000  Level FlightAware
05:47AM -14.2360 -55.6300 136° Southeast 525 604 37,000  Level FlightAware
05:48AM -14.3090 -55.5570 136° Southeast 525 604 37,000  Level FlightAware
05:48AM -14.3660 -55.4990 135° Southeast 526 605 37,000  Level FlightAware
05:49AM -14.4200 -55.4440 135° Southeast 528 608 37,000  Level FlightAware
05:50AM -14.4920 -55.3720 136° Southeast 527 606 37,000  Level FlightAware
05:50AM -14.5540 -55.3100 136° Southeast 528 608 37,000  Level FlightAware
05:51AM -14.6110 -55.2530 136° Southeast 528 608 37,000  Level FlightAware
05:51AM -14.6700 -55.1920 135° Southeast 529 609 37,000  Level FlightAware
05:52AM -14.7310 -55.1310 136° Southeast 529 609 37,000  Level FlightAware
05:52AM -14.7930 -55.0680 136° Southeast 530 610 37,000  Level FlightAware
05:53AM -14.8810 -54.9790 136° Southeast 530 610 37,000  Level FlightAware
05:54AM -14.9340 -54.9240 135° Southeast 530 610 37,000  Level FlightAware
05:54AM -14.9870 -54.8690 135° Southeast 530 610 37,000  Level FlightAware
05:55AM -15.0400 -54.8140 135° Southeast 530 610 37,000  Level FlightAware
05:56AM -15.0930 -54.7590 135° Southeast 530 610 37,000  Level FlightAware
05:56AM -15.1460 -54.7040 135° Southeast 530 610 37,000  Level FlightAware
05:57AM -15.2000 -54.6470 134° Southeast 530 610 37,000  Level FlightAware
05:58AM -15.2530 -54.5920 135° Southeast 530 610 37,000  Level FlightAware
05:58AM -15.3080 -54.5360 136° Southeast 530 610 37,000  Level FlightAware
05:59AM -15.3630 -54.4790 135° Southeast 530 610 37,000  Level FlightAware
05:59AM -15.4160 -54.4240 135° Southeast 530 610 37,000  Level FlightAware
06:00AM -15.4690 -54.3690 135° Southeast 530 610 37,000  Level FlightAware
06:01AM -15.5230 -54.3130 135° Southeast 530 610 37,000  Level FlightAware
06:01AM -15.5760 -54.2580 135° Southeast 530 610 37,000  Level FlightAware
06:02AM -15.6290 -54.2030 135° Southeast 530 610 37,000  Level FlightAware
06:02AM -15.6820 -54.1470 135° Southeast 530 610 37,000  Level FlightAware
06:05AM -15.8967 -53.9473 138° Southeast  Level Estimated
06:06AM -15.9964 -53.8543 138° Southeast  Level Estimated
06:07AM -16.0962 -53.7612 138° Southeast  Level Estimated
06:08AM -16.1959 -53.6680 138° Southeast  Level Estimated
06:09AM -16.2955 -53.5747 138° Southeast  Level Estimated
06:10AM -16.3951 -53.4813 138° Southeast  Level Estimated
06:11AM -16.4947 -53.3878 138° Southeast  Level Estimated
06:12AM -16.5942 -53.2943 138° Southeast  Level Estimated
06:13AM -16.6937 -53.2006 138° Southeast  Level Estimated
06:14AM -16.7932 -53.1068 138° Southeast  Level Estimated
06:15AM -16.8926 -53.0129 138° Southeast  Level Estimated
06:16AM -16.9919 -52.9190 138° Southeast  Level Estimated
06:17AM -17.0912 -52.8249 138° Southeast  Level Estimated
06:18AM -17.1905 -52.7307 138° Southeast  Level Estimated
06:19AM -17.2897 -52.6365 138° Southeast  Level Estimated
06:20AM -17.3889 -52.5421 138° Southeast  Level Estimated
06:21AM -17.4881 -52.4476 138° Southeast  Level Estimated
06:22AM -17.5872 -52.3530 138° Southeast  Level Estimated
06:23AM -17.6862 -52.2583 138° Southeast  Level Estimated
06:24AM -17.7852 -52.1635 138° Southeast  Level Estimated
06:25AM -17.8842 -52.0686 138° Southeast  Level Estimated
06:26AM -17.9831 -51.9736 138° Southeast  Level Estimated
06:27AM -18.0820 -51.8785 138° Southeast  Level Estimated
06:28AM -18.1808 -51.7833 138° Southeast  Level Estimated
06:29AM -18.2796 -51.6880 138° Southeast  Level Estimated
06:30AM -18.3783 -51.5926 137° Southeast  Level Estimated
06:31AM -18.4770 -51.4970 137° Southeast  Level Estimated
06:32AM -18.5756 -51.4014 137° Southeast  Level Estimated
06:32AM -19.0560 -50.6090 137° Southeast 558 642 37,000  Level FlightAware
06:33AM -18.6742 -51.3056 137° Southeast  Level Estimated
06:33AM -19.1190 -50.5410 134° Southeast 559 643 37,000  Level FlightAware
06:34AM -19.1870 -50.4670 134° Southeast 560 644 37,000  Level FlightAware
06:34AM -19.2440 -50.4040 134° Southeast 560 644 37,000  Level FlightAware
06:35AM -19.3090 -50.3320 134° Southeast 561 646 37,000  Level FlightAware
06:35AM -19.3750 -50.2600 134° Southeast 562 647 37,000  Level FlightAware
06:36AM -19.4330 -50.1970 134° Southeast 563 648 37,000  Level FlightAware
06:36AM -19.4980 -50.1250 134° Southeast 564 649 37,000  Level FlightAware
06:37AM -19.5620 -50.0540 134° Southeast 564 649 37,000  Level FlightAware
06:38AM -19.6230 -49.9870 134° Southeast 565 650 37,000  Level FlightAware
06:38AM -19.6800 -49.9250 134° Southeast 564 649 37,000  Level FlightAware
06:39AM -19.7530 -49.8450 134° Southeast 565 650 37,000  Level FlightAware
06:39AM -19.8160 -49.7770 135° Southeast 565 650 37,000  Level FlightAware
06:40AM -19.8780 -49.7090 134° Southeast 566 651 37,000  Level FlightAware
06:41AM -19.9440 -49.6370 134° Southeast 567 652 37,000  Level FlightAware
06:41AM -20.0110 -49.5630 134° Southeast 567 652 37,000  Level FlightAware
06:42AM -20.0700 -49.4980 134° Southeast 567 652 37,000  Level FlightAware
06:42AM -20.1340 -49.4270 134° Southeast 568 654 37,000  Level FlightAware
06:43AM -20.1990 -49.3560 134° Southeast 568 654 37,000  Level FlightAware
06:43AM -20.2670 -49.2810 134° Southeast 568 654 37,000  Level FlightAware
06:44AM -20.3320 -49.2090 134° Southeast 570 656 37,000  Level FlightAware
06:45AM -20.3950 -49.1390 134° Southeast 570 656 37,000  Level FlightAware
06:45AM -20.4530 -49.0750 134° Southeast 572 658 37,000  Level FlightAware
06:46AM -20.5190 -49.0010 134° Southeast 572 658 37,000  Level FlightAware
06:46AM -20.5880 -48.9260 135° Southeast 574 661 37,000  Level FlightAware
06:47AM -20.6480 -48.8580 133° Southeast 575 662 37,000  Level FlightAware
06:48AM -20.7150 -48.7840 134° Southeast 576 663 37,000  Level FlightAware
06:48AM -20.7810 -48.7110 134° Southeast 577 664 37,000  Level FlightAware
06:49AM -20.8390 -48.6450 133° Southeast 577 664 37,000  Level FlightAware
06:49AM -20.9000 -48.5770 134° Southeast 577 664 37,000  Level FlightAware
06:50AM -20.9710 -48.4970 134° Southeast 578 665 37,000  Level FlightAware
06:50AM -21.0260 -48.4350 134° Southeast 578 665 37,000  Level FlightAware
06:51AM -21.1040 -48.3470 134° Southeast 579 666 37,000  Level FlightAware
06:52AM -21.1590 -48.2850 134° Southeast 579 666 37,000  Level FlightAware
06:52AM -21.2270 -48.2070 133° Southeast 580 667 37,000  Level FlightAware
06:53AM -21.2940 -48.1320 134° Southeast 577 664 37,000  Level FlightAware
06:53AM -21.3620 -48.0550 133° Southeast 579 666 37,000  Level FlightAware
06:54AM -21.4270 -47.9810 133° Southeast 578 665 37,000  Level FlightAware
06:55AM -21.4870 -47.9140 134° Southeast 577 664 37,000  Level FlightAware
06:55AM -21.5520 -47.8390 133° Southeast 575 662 37,000  Level FlightAware
06:56AM -21.6180 -47.7650 134° Southeast 575 662 37,000  Level FlightAware
06:56AM -21.6770 -47.6970 133° Southeast 574 661 37,000 -300 Level FlightAware
06:57AM -21.7420 -47.6230 133° Southeast 573 659 36,700 -1,440 Descending FlightAware
06:57AM -21.8060 -47.5500 133° Southeast 573 659 35,300 -2,520 Descending FlightAware
06:58AM -21.8720 -47.4740 133° Southeast 572 658 33,700 -2,700 Descending FlightAware
06:59AM -21.9290 -47.4090 133° Southeast 565 650 32,300 -2,760 Descending FlightAware
06:59AM -21.9980 -47.3470 140° Southeast 552 635 30,700 -3,000 Descending FlightAware
07:00AM -22.0840 -47.3030 155° Southeast 548 631 28,700 -2,700 Descending FlightAware
07:00AM -22.1700 -47.2680 159° South 528 608 27,400 -2,280 Descending FlightAware
07:01AM -22.2460 -47.2370 159° South 518 596 26,100 -2,160 Descending FlightAware
07:02AM -22.3250 -47.2040 159° South 503 579 24,900 -2,220 Descending FlightAware
07:02AM -22.4010 -47.1720 159° South 492 566 23,500 -2,400 Descending FlightAware
07:03AM -22.4690 -47.1440 159° South 485 558 22,200 -2,400 Descending FlightAware
07:03AM -22.5440 -47.1120 158° South 473 544 20,800 -2,460 Descending FlightAware
07:04AM -22.6180 -47.0800 158° South 467 537 19,300 -2,280 Descending FlightAware
07:04AM -22.6700 -47.0580 159° South 458 527 18,400 -1,980 Descending FlightAware
07:05AM -22.7500 -47.0250 159° South 442 509 17,100 -1,920 Descending FlightAware
07:06AM -22.8140 -46.9980 159° South 392 451 16,000 -1,740 Descending FlightAware
07:06AM -22.8740 -46.9730 159° South 347 399 15,000 -1,740 Descending FlightAware
07:07AM -22.9190 -46.9540 159° South 351 404 14,100 -1,980 Descending FlightAware
07:07AM -22.9810 -46.9280 159° South 348 400 12,700 -2,040 Descending FlightAware
07:08AM -23.0270 -46.9080 158° South 325 374 11,700 -1,860 Descending FlightAware
07:09AM -23.0760 -46.8880 159° South 317 365 10,600 -1,920 Descending FlightAware
07:09AM -23.1160 -46.8720 160° South 318 366 9,700 -1,500 Descending FlightAware
07:09AM -23.1420 -46.8600 157° South 303 349 9,400 -960 Descending FlightAware
07:10AM -23.1730 -46.8470 159° South 297 342 9,000 -840 Descending FlightAware
07:10AM -23.1990 -46.8360 159° South 289 333 8,800 -960 Descending FlightAware
07:10AM -23.2140 -46.8300 160° South 288 331 8,500 -900 Descending FlightAware
07:11AM -23.2400 -46.8190 159° South 280 322 8,300 -780 Descending FlightAware
07:11AM -23.2600 -46.8100 158° South 278 320 8,000 -1,020 Descending FlightAware
07:11AM -23.2920 -46.7970 160° South 258 297 7,600 -840 Descending FlightAware
07:12AM -23.3050 -46.7910 157° South 241 277 7,500 -720 Descending FlightAware
07:12AM -23.3280 -46.7800 156° South 231 266 7,200 -720 Descending FlightAware
07:12AM -23.3460 -46.7680 149° Southeast 228 262 7,000 -600 Descending FlightAware
07:13AM -23.3570 -46.7600 146° Southeast 227 261 6,900 -840 Descending FlightAware
07:13AM -23.3770 -46.7450 145° Southeast 223 257 6,500 -960 Descending FlightAware
07:13AM -23.3930 -46.7340 148° Southeast 221 254 6,200 -900 Descending FlightAware
07:14AM -23.4120 -46.7220 150° Southeast 219 252 5,900 -900 Descending FlightAware
07:14AM -23.4300 -46.7100 149° Southeast 216 249 5,600 -900 Descending FlightAware
07:14AM -23.4460 -46.6990 148° Southeast 217 250 5,300 -660 Descending FlightAware
07:14AM -23.4510 -46.6930 132° Southeast 214 246 5,300 -240 Level FlightAware
07:15AM -23.4620 -46.6760 125° Southeast 205 236 5,200 -720 Descending FlightAware
07:15AM -23.4740 -46.6550 122° Southeast 197 227 4,800 -1,080 Descending FlightAware
07:15AM -23.4790 -46.6460 121° Southeast 198 228 4,600 -780 Descending FlightAware
07:15AM -23.4790 -46.6410 90° East 197 227 4,600 -240 Level FlightAware
07:16AM -23.4740 -46.6170 77° East 191 220 4,500 -300 Descending FlightAware
07:16AM -23.4690 -46.5980 74° East 190 219 4,400 -600 Descending FlightAware
07:16AM -23.4660 -46.5890 70° East 188 216 4,200 -1,140 Descending FlightAware
07:17AM -23.4600 -46.5660 74° East 175 201 3,700 -1,080 Descending FlightAware
07:17AM -23.4560 -46.5500 75° East 159 183 3,400 -840 Descending FlightAware
07:17AM -23.4520 -46.5360 73° East 150 173 3,200 -780 Descending FlightAware
07:18AM -23.4480 -46.5210 74° East 151 174 2,900 -840 Descending FlightAware
07:18AM -23.4420 -46.4990 73° East 147 169 2,500 -720 Descending FlightAware
07:19AM -23.4390 -46.4870 75° East 149 171 2,300 -600 Descending FlightAware
07:19AM -23.4350 -46.4720 74° East 110 127 -6,900 Descending FlightAware
07:19AM -23.4320 -46.4600 75° East 84 97  Level FlightAware